Time;durP1;ratioP1;P1;durP2;ratioP2;P2;SDS_P1;SDS_P2;PMS_P1;PMS_P2;Temp;Humidity;BMP_temperature;BMP_pressure;BME280_temperature;BME280_humidity;BME280_pressure;Samples;Min_cycle;Max_cycle;Signal;HPM_P1;HPM_P2
2023/11/21 00:01:40;;;;;;;5.37;2.40;;;8.40;69.80;;;;;;5039787;28;20274;-55
2023/11/21 00:04:07;;;;;;;5.73;2.80;;;8.40;69.60;;;;;;5045374;28;20209;-51
2023/11/21 00:06:34;;;;;;;5.17;2.40;;;8.30;70.60;;;;;;5038298;28;20711;-52
2023/11/21 00:09:00;;;;;;;8.23;2.67;;;8.30;71.50;;;;;;5046075;28;20228;-50
2023/11/21 00:11:27;;;;;;;3.50;2.47;;;8.30;71.90;;;;;;5035370;28;20212;-51
2023/11/21 00:13:53;;;;;;;5.37;2.40;;;8.30;72.60;;;;;;5043996;28;20287;-50
2023/11/21 00:16:22;;;;;;;5.70;2.40;;;8.30;73.80;;;;;;5042618;28;20324;-50
2023/11/21 00:18:48;;;;;;;6.83;2.47;;;8.20;73.70;;;;;;5037116;28;20205;-50
2023/11/21 00:21:15;;;;;;;3.80;2.17;;;8.20;74.40;;;;;;5034553;28;20306;-50
2023/11/21 00:23:41;;;;;;;4.00;2.10;;;8.30;73.90;;;;;;5040304;28;20214;-50
2023/11/21 00:26:08;;;;;;;3.50;2.00;;;8.20;74.90;;;;;;5042251;28;20224;-51
2023/11/21 00:28:34;;;;;;;5.23;2.23;;;8.30;74.70;;;;;;5036724;28;20577;-52
2023/11/21 00:31:01;;;;;;;4.73;2.43;;;8.30;75.30;;;;;;5032616;28;20297;-54
2023/11/21 00:33:27;;;;;;;2.60;2.00;;;8.30;75.20;;;;;;5033071;28;20299;-50
2023/11/21 00:35:54;;;;;;;4.50;2.17;;;8.30;75.60;;;;;;5038081;28;20286;-50
2023/11/21 00:38:20;;;;;;;2.03;1.83;;;8.30;76.60;;;;;;5028394;28;20297;-50
2023/11/21 00:40:47;;;;;;;2.90;2.10;;;8.30;76.90;;;;;;5041433;28;20216;-53
2023/11/21 00:43:13;;;;;;;5.37;2.10;;;8.20;77.90;;;;;;5043697;28;20220;-54
2023/11/21 00:45:40;;;;;;;3.23;1.90;;;8.20;78.30;;;;;;5040869;28;20229;-51
2023/11/21 00:48:08;;;;;;;2.17;1.90;;;8.10;67.20;;;;;;5037387;28;20232;-54
2023/11/21 00:50:34;;;;;;;6.13;2.40;;;8.10;67.00;;;;;;5043192;28;20216;-53
2023/11/21 00:53:01;;;;;;;4.47;1.87;;;8.10;66.80;;;;;;5049501;28;20211;-50
2023/11/21 00:55:29;;;;;;;4.60;2.30;;;8.00;66.30;;;;;;5044516;28;20232;-54
2023/11/21 00:57:56;;;;;;;2.70;2.00;;;8.10;66.40;;;;;;5041407;28;20696;-51
2023/11/21 01:00:23;;;;;;;2.60;2.00;;;8.10;67.40;;;;;;5041048;28;20707;-51
2023/11/21 01:02:49;;;;;;;2.50;1.80;;;8.10;67.20;;;;;;5042942;28;20209;-52
2023/11/21 01:05:16;;;;;;;3.47;1.97;;;8.00;67.20;;;;;;5041299;28;20776;-54
2023/11/21 01:07:42;;;;;;;4.00;2.20;;;8.00;66.70;;;;;;5044405;28;20215;-53
2023/11/21 01:10:09;;;;;;;3.70;2.30;;;8.00;66.50;;;;;;5039186;28;20287;-54
2023/11/21 01:12:36;;;;;;;3.13;2.00;;;8.00;67.00;;;;;;5036329;28;20296;-51
2023/11/21 01:15:03;;;;;;;3.30;2.30;;;8.00;67.00;;;;;;5041387;28;20327;-54
2023/11/21 01:17:29;;;;;;;2.10;1.90;;;8.00;66.30;;;;;;5041470;28;20717;-52
2023/11/21 01:19:57;;;;;;;3.03;2.33;;;7.90;66.50;;;;;;5036860;28;20689;-51
2023/11/21 01:22:25;;;;;;;2.83;2.17;;;7.90;66.20;;;;;;5030557;28;20601;-52
2023/11/21 01:24:52;;;;;;;4.40;2.03;;;7.90;66.20;;;;;;5044629;28;20690;-53
2023/11/21 01:27:18;;;;;;;3.20;2.37;;;8.00;66.80;;;;;;5041340;28;20676;-53
2023/11/21 01:29:45;;;;;;;3.77;2.13;;;8.00;66.90;;;;;;5040091;28;20637;-55
2023/11/21 01:32:11;;;;;;;4.73;2.23;;;7.90;66.70;;;;;;5026334;28;20587;-51
2023/11/21 01:34:37;;;;;;;4.53;2.40;;;8.00;67.20;;;;;;5041540;28;20592;-50
2023/11/21 01:37:05;;;;;;;3.40;1.80;;;7.90;67.80;;;;;;5037231;28;20304;-51
2023/11/21 01:39:31;;;;;;;5.13;3.07;;;7.90;67.80;;;;;;5040662;28;20210;-52
2023/11/21 01:41:58;;;;;;;4.63;2.80;;;8.00;67.90;;;;;;5038175;28;20219;-53
2023/11/21 01:44:24;;;;;;;5.63;2.30;;;7.90;67.40;;;;;;5044101;28;20595;-52
2023/11/21 01:46:51;;;;;;;6.33;2.53;;;7.90;67.50;;;;;;5024408;28;20234;-51
2023/11/21 01:49:18;;;;;;;3.97;2.17;;;7.90;67.30;;;;;;5032088;28;20253;-52
2023/11/21 01:51:44;;;;;;;3.33;2.87;;;8.00;66.70;;;;;;5037388;28;20304;-52
2023/11/21 01:54:11;;;;;;;3.27;2.97;;;8.00;66.30;;;;;;5040835;28;20213;-53
2023/11/21 01:56:38;;;;;;;5.50;2.87;;;8.00;66.30;;;;;;5035376;28;20243;-51
2023/11/21 01:59:04;;;;;;;4.60;2.33;;;8.00;66.30;;;;;;5038976;28;20293;-50
2023/11/21 02:01:31;;;;;;;2.60;2.40;;;8.10;66.40;;;;;;5035683;28;20213;-53
2023/11/21 02:03:58;;;;;;;3.40;2.60;;;8.10;66.20;;;;;;5033494;28;20216;-51
2023/11/21 02:06:24;;;;;;;2.77;2.27;;;8.10;65.00;;;;;;5037264;28;20791;-53
2023/11/21 02:08:51;;;;;;;5.20;2.30;;;8.10;67.20;;;;;;5039031;28;20655;-51
2023/11/21 02:11:19;;;;;;;4.93;2.33;;;8.10;68.70;;;;;;5033538;28;20268;-52
2023/11/21 02:13:45;;;;;;;7.67;2.60;;;8.20;68.30;;;;;;5043350;28;20676;-53
2023/11/21 02:16:12;;;;;;;5.07;2.40;;;8.30;67.40;;;;;;5025806;28;20228;-49
2023/11/21 02:18:39;;;;;;;4.83;2.30;;;8.30;66.60;;;;;;5043418;28;20199;-50
2023/11/21 02:21:05;;;;;;;4.90;2.10;;;8.30;66.40;;;;;;5039176;28;20288;-52
2023/11/21 02:23:32;;;;;;;4.07;1.90;;;8.40;66.50;;;;;;5036556;28;20206;-54
2023/11/21 02:25:59;;;;;;;2.67;2.10;;;8.30;67.00;;;;;;5043580;28;20307;-51
2023/11/21 02:28:26;;;;;;;4.13;2.30;;;8.40;63.70;;;;;;5036404;28;20217;-52
2023/11/21 02:30:55;;;;;;;4.30;2.30;;;8.30;64.30;;;;;;5041478;28;20225;-50
2023/11/21 02:33:22;;;;;;;3.83;1.90;;;8.30;64.50;;;;;;5035925;28;20206;-50
2023/11/21 02:35:48;;;;;;;3.13;2.20;;;8.30;65.00;;;;;;5033229;28;20232;-52
2023/11/21 02:38:15;;;;;;;4.53;2.30;;;8.20;65.70;;;;;;5031093;28;20351;-51
2023/11/21 02:40:42;;;;;;;4.33;2.10;;;8.20;66.40;;;;;;5038015;28;20235;-52
2023/11/21 02:43:09;;;;;;;4.77;2.40;;;8.20;66.90;;;;;;5035267;28;20589;-52
2023/11/21 02:45:35;;;;;;;5.03;1.90;;;8.10;66.30;;;;;;5040747;28;20225;-53
2023/11/21 02:48:01;;;;;;;4.03;2.60;;;8.10;66.40;;;;;;5039797;28;20691;-50
2023/11/21 02:50:29;;;;;;;4.33;2.03;;;8.10;67.20;;;;;;5027483;28;20661;-48
2023/11/21 02:52:57;;;;;;;3.07;1.80;;;8.00;67.20;;;;;;5036584;28;20199;-51
2023/11/21 02:55:24;;;;;;;5.23;2.10;;;8.00;67.40;;;;;;5043148;28;20764;-50
2023/11/21 02:57:51;;;;;;;2.93;2.20;;;8.00;68.00;;;;;;5027580;28;20206;-51
2023/11/21 03:00:18;;;;;;;2.17;1.83;;;8.00;68.20;;;;;;5035584;28;20220;-52
2023/11/21 03:02:44;;;;;;;4.43;1.90;;;7.90;67.70;;;;;;5028872;28;20212;-50
2023/11/21 03:05:10;;;;;;;2.37;2.03;;;8.00;67.30;;;;;;5038178;28;20229;-52
2023/11/21 03:07:37;;;;;;;3.23;2.00;;;7.90;68.20;;;;;;5037245;28;20678;-50
2023/11/21 03:10:04;;;;;;;4.20;2.10;;;7.90;68.60;;;;;;5037901;28;20618;-53
2023/11/21 03:12:30;;;;;;;2.47;1.70;;;7.90;69.30;;;;;;5039591;28;20662;-51
2023/11/21 03:14:56;;;;;;;3.60;2.30;;;7.90;68.60;;;;;;5042365;28;20794;-49
2023/11/21 03:17:24;;;;;;;5.97;2.80;;;7.90;68.90;;;;;;5036270;28;20514;-51
2023/11/21 03:19:52;;;;;;;7.47;2.30;;;7.90;68.50;;;;;;5043845;28;20283;-51
2023/11/21 03:22:18;;;;;;;3.63;1.70;;;8.00;68.30;;;;;;5042137;28;20236;-52
2023/11/21 03:24:45;;;;;;;4.63;2.00;;;8.00;68.70;;;;;;5032738;28;20228;-51
2023/11/21 03:27:12;;;;;;;2.33;2.10;;;8.00;67.80;;;;;;5040975;28;20208;-51
2023/11/21 03:29:39;;;;;;;5.20;2.10;;;7.90;67.50;;;;;;5034730;28;20232;-53
2023/11/21 03:32:06;;;;;;;4.17;2.17;;;7.90;67.60;;;;;;5041982;28;20208;-54
2023/11/21 03:34:33;;;;;;;3.83;2.00;;;7.90;67.60;;;;;;5044629;28;20301;-51
2023/11/21 03:36:59;;;;;;;2.00;1.90;;;7.90;67.50;;;;;;5041590;28;20305;-51
2023/11/21 03:39:26;;;;;;;2.80;2.27;;;7.90;67.70;;;;;;5042928;28;20296;-54
2023/11/21 03:41:52;;;;;;;4.43;2.40;;;7.90;67.30;;;;;;5033273;28;20224;-54
2023/11/21 03:44:19;;;;;;;3.37;2.00;;;8.00;67.10;;;;;;5047952;28;20210;-54
2023/11/21 03:46:45;;;;;;;3.63;2.10;;;8.00;67.00;;;;;;5040645;28;20213;-54
2023/11/21 03:49:12;;;;;;;3.13;1.97;;;8.10;66.40;;;;;;5045131;28;20237;-52
2023/11/21 03:51:38;;;;;;;4.43;2.40;;;8.00;66.80;;;;;;5042839;28;20215;-55
2023/11/21 03:54:05;;;;;;;4.60;2.30;;;8.00;67.00;;;;;;5036171;28;20767;-54
2023/11/21 03:56:31;;;;;;;3.37;1.93;;;8.00;67.50;;;;;;5041564;28;20734;-50
2023/11/21 03:58:58;;;;;;;4.03;2.10;;;7.90;67.20;;;;;;5032576;28;20218;-51
2023/11/21 04:01:24;;;;;;;2.57;1.80;;;7.90;67.60;;;;;;5034573;28;20633;-52
2023/11/21 04:03:51;;;;;;;4.73;2.00;;;7.90;67.20;;;;;;5041701;28;20664;-51
2023/11/21 04:06:18;;;;;;;1.97;1.80;;;7.90;66.80;;;;;;5038785;28;20299;-52
2023/11/21 04:08:44;;;;;;;2.87;2.10;;;7.90;67.00;;;;;;5045952;28;20227;-50
2023/11/21 04:11:11;;;;;;;3.43;2.07;;;7.80;67.00;;;;;;5038314;28;20208;-51
2023/11/21 04:13:38;;;;;;;2.73;1.80;;;7.80;67.20;;;;;;5039766;28;20221;-50
2023/11/21 04:16:04;;;;;;;4.13;2.20;;;7.80;66.90;;;;;;5037310;28;20229;-52
2023/11/21 04:18:31;;;;;;;2.03;1.87;;;7.80;66.90;;;;;;5033713;28;20222;-53
2023/11/21 04:20:57;;;;;;;2.97;2.03;;;7.80;67.20;;;;;;5033685;28;20219;-51
2023/11/21 04:23:23;;;;;;;3.57;2.03;;;7.80;67.20;;;;;;5046350;28;20805;-52
2023/11/21 04:25:50;;;;;;;2.67;1.80;;;7.80;67.60;;;;;;5036209;28;20310;-52
2023/11/21 04:28:17;;;;;;;2.47;2.07;;;7.80;67.30;;;;;;5043128;28;20209;-50
2023/11/21 04:30:43;;;;;;;3.87;1.77;;;7.90;67.30;;;;;;5038078;28;20232;-50
2023/11/21 04:33:09;;;;;;;2.37;1.97;;;7.90;66.80;;;;;;5035729;28;20603;-51
2023/11/21 04:35:36;;;;;;;2.83;1.97;;;8.00;66.30;;;;;;5036689;28;20703;-50
2023/11/21 04:38:02;;;;;;;1.93;1.70;;;8.00;66.30;;;;;;5039321;28;20226;-52
2023/11/21 04:40:29;;;;;;;2.47;1.60;;;8.00;66.30;;;;;;5044093;28;20290;-52
2023/11/21 04:42:57;;;;;;;1.77;1.63;;;8.00;66.30;;;;;;5029302;28;20215;-50
2023/11/21 04:45:23;;;;;;;8.23;1.90;;;7.90;66.10;;;;;;5040775;28;20271;-49
2023/11/21 04:47:49;;;;;;;3.33;1.83;;;8.00;65.40;;;;;;5041340;28;20226;-52
2023/11/21 04:50:16;;;;;;;2.20;1.80;;;7.90;66.10;;;;;;5045416;28;20230;-54
2023/11/21 04:52:42;;;;;;;3.73;2.17;;;8.00;66.30;;;;;;5037660;28;20256;-50
2023/11/21 04:55:10;;;;;;;2.70;1.93;;;8.00;65.60;;;;;;5043638;28;20228;-50
2023/11/21 04:57:36;;;;;;;1.93;1.77;;;7.90;65.80;;;;;;5043213;28;20252;-51
2023/11/21 05:00:05;;;;;;;2.73;1.60;;;8.00;65.90;;;;;;5041295;28;20226;-49
2023/11/21 05:02:33;;;;;;;2.00;1.60;;;7.90;65.90;;;;;;5035805;28;20208;-50
2023/11/21 05:05:00;;;;;;;2.20;2.00;;;8.00;65.90;;;;;;5044686;28;20274;-51
2023/11/21 05:07:28;;;;;;;2.10;1.90;;;8.00;66.30;;;;;;5038855;28;20283;-49
2023/11/21 05:09:55;;;;;;;3.83;2.00;;;7.90;66.20;;;;;;5035011;28;20639;-52
2023/11/21 05:12:21;;;;;;;1.97;1.87;;;7.90;66.40;;;;;;5029067;28;20539;-51
2023/11/21 05:14:48;;;;;;;1.93;1.83;;;8.00;66.30;;;;;;5040917;28;20289;-50
2023/11/21 05:17:15;;;;;;;3.83;2.00;;;7.90;66.60;;;;;;5043382;28;20204;-51
2023/11/21 05:19:41;;;;;;;2.10;1.80;;;7.90;66.50;;;;;;5040657;28;20211;-52
2023/11/21 05:22:08;;;;;;;2.73;2.20;;;7.90;66.60;;;;;;5023969;28;20221;-53
2023/11/21 05:24:35;;;;;;;3.13;1.90;;;8.00;66.30;;;;;;5036768;28;20208;-50
2023/11/21 05:27:01;;;;;;;3.53;2.13;;;7.90;66.20;;;;;;5036845;28;20213;-51
2023/11/21 05:29:28;;;;;;;1.80;1.70;;;7.90;66.80;;;;;;5034567;28;20228;-53
2023/11/21 05:31:54;;;;;;;2.00;1.80;;;7.90;66.50;;;;;;5043655;28;20208;-50
2023/11/21 05:34:23;;;;;;;3.73;1.87;;;7.90;66.50;;;;;;5037762;28;20210;-49
2023/11/21 05:36:50;;;;;;;1.60;1.50;;;7.80;66.10;;;;;;5029665;28;20666;-52
2023/11/21 05:39:17;;;;;;;4.73;2.20;;;7.80;66.90;;;;;;5022208;28;20213;-54
2023/11/21 05:41:43;;;;;;;4.33;2.13;;;7.80;67.10;;;;;;5038762;28;20215;-50
2023/11/21 05:44:10;;;;;;;4.57;2.10;;;7.80;66.80;;;;;;5040934;28;20657;-53
2023/11/21 05:46:36;;;;;;;4.43;1.80;;;7.80;66.80;;;;;;5030266;28;20320;-51
2023/11/21 05:49:03;;;;;;;3.33;2.10;;;7.90;66.20;;;;;;5040727;28;20211;-51
2023/11/21 05:51:30;;;;;;;1.70;1.60;;;7.90;66.20;;;;;;5032944;28;20259;-51
2023/11/21 05:53:56;;;;;;;2.97;1.63;;;8.00;65.40;;;;;;5030714;28;20681;-51
2023/11/21 05:56:23;;;;;;;2.20;2.00;;;8.00;65.00;;;;;;5030513;28;20833;-51
2023/11/21 05:58:50;;;;;;;2.70;1.90;;;7.90;64.70;;;;;;5036227;28;20759;-52
2023/11/21 06:01:17;;;;;;;4.07;1.77;;;7.90;65.10;;;;;;5040116;28;20209;-52
2023/11/21 06:03:43;;;;;;;2.17;1.80;;;7.90;65.00;;;;;;5027832;28;20227;-51
2023/11/21 06:06:10;;;;;;;1.97;1.87;;;8.00;65.60;;;;;;5036001;28;20227;-52
2023/11/21 06:08:36;;;;;;;2.37;1.97;;;7.90;64.60;;;;;;5032430;28;20236;-51
2023/11/21 06:11:03;;;;;;;2.93;2.13;;;7.80;64.60;;;;;;5030195;28;20233;-50
2023/11/21 06:13:30;;;;;;;2.60;2.00;;;7.70;64.90;;;;;;5026522;28;20292;-50
2023/11/21 06:15:56;;;;;;;3.50;2.10;;;7.80;65.40;;;;;;5038013;28;20331;-52
2023/11/21 06:18:23;;;;;;;3.37;2.23;;;7.80;65.10;;;;;;5040187;28;20297;-54
2023/11/21 06:20:50;;;;;;;2.93;1.90;;;7.80;65.40;;;;;;5038426;28;20240;-52
2023/11/21 06:23:16;;;;;;;1.93;1.83;;;7.70;65.00;;;;;;5032520;28;20288;-51
2023/11/21 06:25:43;;;;;;;2.97;2.10;;;7.80;64.90;;;;;;5036311;28;20242;-51
2023/11/21 06:28:10;;;;;;;2.30;1.90;;;7.80;65.00;;;;;;5043731;28;20820;-51
2023/11/21 06:30:36;;;;;;;3.73;2.10;;;7.80;65.00;;;;;;5036519;28;20230;-51
2023/11/21 06:33:03;;;;;;;1.83;1.60;;;7.80;65.60;;;;;;5024980;28;20666;-53
2023/11/21 06:35:32;;;;;;;1.93;1.80;;;7.80;64.60;;;;;;5040728;28;20229;-51
2023/11/21 06:37:59;;;;;;;3.17;2.10;;;7.80;64.80;;;;;;5043923;28;20215;-50
2023/11/21 06:40:25;;;;;;;2.40;2.07;;;7.80;64.80;;;;;;5040153;28;20208;-54
2023/11/21 06:42:52;;;;;;;2.87;2.67;;;7.80;64.80;;;;;;5026336;28;20694;-52
2023/11/21 06:45:18;;;;;;;2.43;2.10;;;7.70;65.20;;;;;;5029398;28;20227;-52
2023/11/21 06:47:44;;;;;;;2.57;2.30;;;7.70;65.20;;;;;;5039493;28;20688;-51
2023/11/21 06:50:11;;;;;;;2.33;2.20;;;7.80;65.20;;;;;;5039376;28;20766;-51
2023/11/21 06:52:38;;;;;;;2.53;1.90;;;7.80;64.80;;;;;;5036491;28;20209;-52
2023/11/21 06:55:04;;;;;;;2.73;2.50;;;7.80;65.00;;;;;;5029202;28;20255;-50
2023/11/21 06:57:31;;;;;;;3.07;1.93;;;7.80;64.90;;;;;;5040594;28;20290;-53
2023/11/21 06:59:58;;;;;;;2.00;1.90;;;7.80;64.80;;;;;;5034710;28;20292;-51
2023/11/21 07:02:24;;;;;;;2.53;2.30;;;7.80;64.60;;;;;;5031709;28;20204;-52
2023/11/21 07:04:51;;;;;;;2.20;2.00;;;7.90;64.80;;;;;;5022872;28;20438;-53
2023/11/21 07:07:17;;;;;;;3.07;2.00;;;7.90;64.50;;;;;;5028665;28;20208;-53
2023/11/21 07:09:44;;;;;;;3.00;2.10;;;7.80;64.30;;;;;;5018872;28;20258;-50
2023/11/21 07:12:10;;;;;;;4.30;1.90;;;7.90;63.60;;;;;;5037585;28;20235;-52
2023/11/21 07:14:39;;;;;;;1.67;1.57;;;7.90;64.50;;;;;;5034203;28;20228;-52
2023/11/21 07:17:06;;;;;;;2.60;1.80;;;7.90;64.70;;;;;;5038655;28;20208;-51
2023/11/21 07:19:33;;;;;;;2.47;1.93;;;7.80;64.10;;;;;;5025484;28;20232;-52
2023/11/21 07:22:00;;;;;;;2.00;1.80;;;7.80;64.60;;;;;;5022235;28;20209;-48
2023/11/21 07:24:26;;;;;;;2.17;1.73;;;7.90;64.30;;;;;;5015595;28;20591;-49
2023/11/21 07:26:56;;;;;;;1.97;1.87;;;7.90;63.80;;;;;;5030885;28;20697;-51
2023/11/21 07:29:22;;;;;;;1.73;1.63;;;7.90;63.20;;;;;;5019626;28;20205;-49
2023/11/21 07:31:49;;;;;;;2.57;1.90;;;7.90;63.60;;;;;;5034361;28;20311;-49
2023/11/21 07:34:16;;;;;;;11.30;3.30;;;7.90;62.90;;;;;;5032714;28;20590;-49
2023/11/21 07:36:42;;;;;;;3.53;2.17;;;8.00;62.90;;;;;;5021992;28;20304;-49
2023/11/21 07:39:10;;;;;;;2.40;2.20;;;8.00;62.50;;;;;;5037665;28;20229;-53
2023/11/21 07:41:37;;;;;;;2.17;1.80;;;8.10;62.90;;;;;;5033938;28;20209;-50
2023/11/21 07:44:04;;;;;;;1.83;1.50;;;8.20;62.50;;;;;;5027311;28;20217;-51
2023/11/21 07:46:31;;;;;;;1.50;1.50;;;8.20;62.50;;;;;;5031341;28;20236;-51
2023/11/21 07:48:57;;;;;;;1.60;1.50;;;8.20;61.80;;;;;;5025132;28;20893;-51
2023/11/21 07:51:24;;;;;;;2.00;1.90;;;8.20;61.80;;;;;;5016604;28;20342;-49
2023/11/21 07:53:50;;;;;;;2.33;1.80;;;8.30;61.90;;;;;;5032302;28;20293;-49
2023/11/21 07:56:17;;;;;;;1.67;1.57;;;8.30;61.90;;;;;;5024007;28;20225;-50
2023/11/21 07:58:44;;;;;;;1.90;1.70;;;8.30;61.40;;;;;;5029038;28;20295;-46
2023/11/21 08:01:11;;;;;;;2.80;1.77;;;;;;;;;;5029162;28;20205;-45
2023/11/21 08:03:38;;;;;;;3.97;1.90;;;8.50;76.80;;;;;;5019174;28;20214;-52
2023/11/21 08:06:05;;;;;;;1.60;1.50;;;9.70;73.40;;;;;;5026442;28;20222;-50
2023/11/21 08:08:32;;;;;;;2.03;1.60;;;9.10;71.00;;;;;;5027604;28;20301;-49
2023/11/21 08:10:58;;;;;;;2.07;1.70;;;8.70;70.00;;;;;;5036977;28;20225;-53
2023/11/21 08:13:25;;;;;;;2.10;2.00;;;8.70;70.20;;;;;;5028150;28;20647;-49
2023/11/21 08:15:51;;;;;;;2.23;2.03;;;8.50;70.10;;;;;;5020535;28;20594;-49
2023/11/21 08:18:18;;;;;;;1.80;1.70;;;8.50;71.10;;;;;;5021896;28;20308;-50
2023/11/21 08:20:47;;;;;;;4.50;2.00;;;8.50;71.30;;;;;;5028983;28;20210;-50
2023/11/21 08:23:15;;;;;;;1.97;1.60;;;8.50;69.20;;;;;;5038689;28;20565;-51
2023/11/21 08:25:42;;;;;;;1.60;1.50;;;8.50;68.90;;;;;;5041031;28;20339;-52
2023/11/21 08:28:08;;;;;;;1.80;1.67;;;8.40;67.80;;;;;;4991624;28;20210;-54
2023/11/21 08:30:35;;;;;;;1.77;1.60;;;8.30;65.10;;;;;;5030340;28;20226;-53
2023/11/21 08:33:03;;;;;;;2.73;1.87;;;8.40;65.00;;;;;;5024952;28;20638;-49
2023/11/21 08:35:29;;;;;;;2.63;1.50;;;8.40;64.00;;;;;;5030542;28;20305;-50
2023/11/21 08:37:56;;;;;;;1.70;1.60;;;8.40;63.60;;;;;;5023044;28;20285;-51
2023/11/21 08:40:23;;;;;;;1.93;1.70;;;8.50;63.10;;;;;;5030346;28;20285;-51
2023/11/21 08:42:51;;;;;;;1.70;1.60;;;8.60;63.10;;;;;;5019128;28;20221;-54
2023/11/21 08:45:18;;;;;;;1.87;1.60;;;8.60;62.70;;;;;;5020303;28;20222;-54
2023/11/21 08:47:45;;;;;;;2.20;2.07;;;8.50;62.10;;;;;;5026844;28;20237;-52
2023/11/21 08:50:12;;;;;;;1.97;1.73;;;8.60;62.60;;;;;;5028583;28;20222;-48
2023/11/21 08:52:38;;;;;;;1.80;1.70;;;8.70;62.20;;;;;;5022730;28;20218;-53
2023/11/21 08:55:07;;;;;;;1.70;1.60;;;8.80;62.30;;;;;;4994215;28;20254;-51
2023/11/21 08:57:34;;;;;;;2.27;1.80;;;8.90;61.10;;;;;;4998023;28;20219;-50
2023/11/21 09:00:00;;;;;;;1.73;1.63;;;9.00;61.30;;;;;;5026565;28;20271;-51
2023/11/21 09:02:27;;;;;;;2.40;1.90;;;9.00;60.60;;;;;;5027274;28;20206;-50
2023/11/21 09:04:53;;;;;;;1.70;1.60;;;9.10;60.60;;;;;;5021386;28;20312;-52
2023/11/21 09:07:20;;;;;;;1.73;1.60;;;9.20;60.40;;;;;;5031840;28;20210;-51
2023/11/21 09:09:47;;;;;;;2.33;1.43;;;9.30;59.90;;;;;;5028316;28;20211;-50
2023/11/21 09:12:13;;;;;;;2.20;1.80;;;9.30;60.20;;;;;;5025287;28;20216;-51
2023/11/21 09:14:40;;;;;;;1.70;1.60;;;9.50;60.00;;;;;;5028870;28;20231;-51
2023/11/21 09:17:10;;;;;;;2.37;1.77;;;9.60;58.90;;;;;;5027398;28;20201;-50
2023/11/21 09:19:37;;;;;;;2.10;1.67;;;9.60;58.50;;;;;;5032815;28;20212;-50
2023/11/21 09:22:04;;;;;;;1.87;1.67;;;9.60;57.50;;;;;;5016473;28;20200;-49
2023/11/21 09:24:31;;;;;;;2.03;1.70;;;9.50;57.30;;;;;;5007891;28;20205;-50
2023/11/21 09:26:58;;;;;;;3.27;1.83;;;9.70;57.10;;;;;;5024358;28;20206;-51
2023/11/21 09:29:25;;;;;;;3.00;1.93;;;9.90;57.30;;;;;;5026049;28;20245;-50
2023/11/21 09:31:52;;;;;;;2.27;2.10;;;9.90;59.00;;;;;;5027443;28;20670;-51
2023/11/21 09:34:18;;;;;;;1.90;1.60;;;9.90;58.40;;;;;;5021289;28;20683;-51
2023/11/21 09:36:44;;;;;;;2.20;2.00;;;9.70;58.50;;;;;;5023196;28;20643;-51
2023/11/21 09:39:14;;;;;;;2.10;1.90;;;9.90;58.70;;;;;;5031568;28;20217;-55
2023/11/21 09:41:41;;;;;;;2.90;1.70;;;;;;;;;;5025077;28;20210;-50
2023/11/21 09:44:10;;;;;;;2.00;1.80;;;10.00;64.30;;;;;;5031853;28;20669;-52
2023/11/21 09:46:39;;;;;;;2.23;1.90;;;;;;;;;;5026846;28;20289;-52
2023/11/21 09:49:08;;;;;;;2.13;1.53;;;10.80;59.40;;;;;;5031837;28;20293;-51
2023/11/21 09:51:38;;;;;;;2.60;2.00;;;11.90;51.90;;;;;;5028807;28;20218;-53
2023/11/21 09:54:08;;;;;;;1.77;1.40;;;12.70;57.60;;;;;;5028061;28;20255;-52
2023/11/21 09:56:35;;;;;;;2.37;1.47;;;12.50;53.40;;;;;;5008336;28;20335;-52
2023/11/21 09:59:05;;;;;;;2.63;1.67;;;12.30;53.40;;;;;;5019860;28;20699;-51
2023/11/21 10:01:32;;;;;;;1.90;1.80;;;12.00;53.70;;;;;;5013453;28;20199;-55
2023/11/21 10:03:59;;;;;;;1.80;1.40;;;12.60;52.50;;;;;;5019677;28;20291;-51
2023/11/21 10:06:26;;;;;;;2.53;1.50;;;12.20;49.80;;;;;;5017388;28;20254;-53
2023/11/21 10:08:53;;;;;;;1.63;1.53;;;11.70;50.50;;;;;;5028052;28;20770;-52
2023/11/21 10:11:19;;;;;;;4.07;1.80;;;12.00;51.20;;;;;;5022423;28;20227;-52
2023/11/21 10:13:46;;;;;;;2.40;1.60;;;12.80;49.60;;;;;;5024274;28;20221;-50
2023/11/21 10:16:13;;;;;;;2.13;1.40;;;12.10;50.50;;;;;;5024368;28;20230;-51
2023/11/21 10:18:40;;;;;;;3.57;1.60;;;11.30;50.80;;;;;;5026811;28;20242;-49
2023/11/21 10:21:09;;;;;;;3.57;1.47;;;;;;;;;;5025751;28;20638;-50
2023/11/21 10:23:35;;;;;;;2.80;1.50;;;10.60;53.00;;;;;;5026533;28;20664;-50
2023/11/21 10:26:02;;;;;;;2.67;1.80;;;10.50;53.90;;;;;;5024662;28;20677;-50
2023/11/21 10:28:28;;;;;;;2.50;1.63;;;10.50;53.90;;;;;;5021607;28;20204;-55
2023/11/21 10:30:54;;;;;;;4.03;2.07;;;10.40;53.90;;;;;;5019178;28;20326;-48
2023/11/21 10:33:21;;;;;;;2.23;1.80;;;10.60;54.10;;;;;;5017583;28;20234;-52
2023/11/21 10:35:50;;;;;;;3.63;2.00;;;10.70;54.00;;;;;;5012627;28;20810;-51
2023/11/21 10:38:17;;;;;;;2.07;1.63;;;10.80;53.70;;;;;;5023831;28;20210;-52
2023/11/21 10:40:46;;;;;;;2.30;2.10;;;10.70;53.10;;;;;;5026119;28;20212;-52
2023/11/21 10:43:13;;;;;;;2.20;1.67;;;10.80;53.90;;;;;;5026294;28;20248;-50
2023/11/21 10:45:39;;;;;;;1.83;1.67;;;10.60;54.00;;;;;;5025986;28;20229;-53
2023/11/21 10:48:06;;;;;;;2.47;1.60;;;10.60;54.10;;;;;;5031258;28;20265;-50
2023/11/21 10:50:32;;;;;;;2.57;1.80;;;10.60;54.30;;;;;;5030823;28;20233;-52
2023/11/21 10:52:59;;;;;;;1.77;1.63;;;10.50;54.50;;;;;;5018942;28;20210;-50
2023/11/21 10:55:26;;;;;;;2.23;1.73;;;10.30;55.00;;;;;;5031033;28;20233;-55
2023/11/21 10:57:52;;;;;;;2.23;1.70;;;10.40;54.70;;;;;;5021047;28;20216;-53
2023/11/21 11:00:20;;;;;;;2.93;2.00;;;10.40;73.10;;;;;;5030458;28;20224;-52
2023/11/21 11:02:47;;;;;;;2.90;2.00;;;10.80;67.70;;;;;;5020561;28;20221;-51
2023/11/21 11:05:13;;;;;;;3.93;2.30;;;11.00;55.80;;;;;;5026487;28;20239;-54
2023/11/21 11:07:40;;;;;;;1.60;1.50;;;12.30;53.70;;;;;;5022534;28;20461;-53
2023/11/21 11:10:08;;;;;;;3.23;2.13;;;15.00;44.40;;;;;;5030258;28;20202;-54
2023/11/21 11:12:35;;;;;;;2.30;1.30;;;;;;;;;;5025697;28;20615;-55
2023/11/21 11:15:02;;;;;;;1.27;1.20;;;13.60;88.40;;;;;;5030502;28;20238;-53
2023/11/21 11:17:29;;;;;;;3.10;1.67;;;;;;;;;;5030038;28;20674;-52
2023/11/21 11:19:57;;;;;;;1.93;1.80;;;12.00;74.00;;;;;;5030294;28;20211;-54
2023/11/21 11:22:25;;;;;;;1.83;1.60;;;11.70;51.10;;;;;;5031329;28;20254;-53
2023/11/21 11:24:51;;;;;;;1.80;1.70;;;11.40;51.60;;;;;;5030456;28;20232;-48
2023/11/21 11:27:18;;;;;;;2.37;1.60;;;;;;;;;;5008993;28;20221;-52
2023/11/21 11:29:45;;;;;;;3.43;1.70;;;11.20;60.40;;;;;;5024432;28;20221;-57
2023/11/21 11:32:13;;;;;;;3.33;1.87;;;10.90;53.20;;;;;;5027595;28;20316;-51
2023/11/21 11:34:39;;;;;;;2.10;1.80;;;10.80;53.50;;;;;;5027209;28;20237;-55
2023/11/21 11:37:07;;;;;;;1.67;1.57;;;11.20;53.30;;;;;;5026640;28;20216;-54
2023/11/21 11:39:33;;;;;;;3.73;1.80;;;11.10;52.80;;;;;;5020925;28;21758;-51
2023/11/21 11:42:00;;;;;;;3.60;1.50;;;10.90;52.80;;;;;;5026523;28;20334;-50
2023/11/21 11:44:26;;;;;;;2.27;1.60;;;10.70;53.70;;;;;;5028197;28;20218;-52
2023/11/21 11:46:53;;;;;;;2.60;2.10;;;10.60;54.00;;;;;;5023659;28;20305;-51
2023/11/21 11:49:19;;;;;;;1.97;1.60;;;10.50;54.80;;;;;;5023692;28;20213;-51
2023/11/21 11:51:46;;;;;;;3.47;2.30;;;10.50;54.60;;;;;;5028665;28;20226;-51
2023/11/21 11:54:13;;;;;;;3.27;2.63;;;10.50;54.60;;;;;;5029382;28;20677;-50
2023/11/21 11:56:40;;;;;;;2.97;2.70;;;10.40;54.80;;;;;;5027359;28;20239;-54
2023/11/21 11:59:09;;;;;;;1.80;1.60;;;10.50;54.70;;;;;;5027270;28;20220;-52
2023/11/21 12:01:35;;;;;;;3.43;1.67;;;10.50;54.80;;;;;;5023349;28;20236;-53
2023/11/21 12:04:02;;;;;;;1.80;1.70;;;10.50;54.20;;;;;;5033053;28;20220;-52
2023/11/21 12:06:29;;;;;;;1.70;1.60;;;10.50;54.30;;;;;;5021370;28;20567;-49
2023/11/21 12:08:55;;;;;;;2.73;2.00;;;10.40;53.90;;;;;;5012175;28;20628;-52
2023/11/21 12:11:23;;;;;;;2.47;2.10;;;10.30;54.20;;;;;;5018649;28;20312;-53
2023/11/21 12:13:51;;;;;;;2.00;1.80;;;10.30;54.50;;;;;;5026567;28;20240;-51
2023/11/21 12:16:18;;;;;;;2.53;1.83;;;10.30;55.70;;;;;;5026399;28;20232;-54
2023/11/21 12:18:44;;;;;;;1.70;1.60;;;10.30;69.70;;;;;;5032351;28;20212;-55
2023/11/21 12:21:11;;;;;;;2.50;1.60;;;10.40;72.20;;;;;;5030731;28;20208;-53
2023/11/21 12:23:37;;;;;;;2.40;1.70;;;10.50;69.60;;;;;;5033222;28;20211;-51
2023/11/21 12:26:04;;;;;;;1.63;1.53;;;10.60;68.80;;;;;;5017543;28;20221;-49
2023/11/21 12:28:30;;;;;;;1.67;1.50;;;10.70;78.30;;;;;;5026511;28;20209;-52
2023/11/21 12:30:57;;;;;;;1.93;1.50;;;11.00;60.10;;;;;;5028516;28;20218;-50
2023/11/21 12:33:25;;;;;;;1.93;1.60;;;11.20;61.10;;;;;;5030790;28;20210;-53
2023/11/21 12:35:53;;;;;;;1.47;1.37;;;11.40;60.10;;;;;;5032738;28;20235;-53
2023/11/21 12:38:19;;;;;;;1.80;1.67;;;11.20;59.10;;;;;;5021821;28;20240;-51
2023/11/21 12:40:46;;;;;;;4.20;2.00;;;11.00;59.10;;;;;;5032259;28;20267;-51
2023/11/21 12:43:12;;;;;;;1.93;1.50;;;10.80;59.00;;;;;;5032738;28;20263;-51
2023/11/21 12:45:39;;;;;;;1.73;1.63;;;10.70;59.50;;;;;;5029956;28;20225;-52
2023/11/21 12:48:07;;;;;;;3.03;1.97;;;10.40;61.80;;;;;;5025423;28;20245;-54
2023/11/21 12:50:34;;;;;;;1.70;1.57;;;10.20;64.10;;;;;;5030134;28;20240;-50
2023/11/21 12:53:00;;;;;;;1.70;1.60;;;9.80;65.60;;;;;;5024304;28;20229;-53
2023/11/21 12:55:27;;;;;;;2.20;1.70;;;9.70;60.10;;;;;;5024732;28;20455;-51